sensor_id;sensor_type;location;lat;lon;timestamp;P1;durP1;ratioP1;P2;durP2;ratioP2
36923;SDS011;22841;50.252;18.688;2022-12-24T00:02:22;79.50;;;38.38;;
36923;SDS011;22841;50.252;18.688;2022-12-24T00:04:48;73.07;;;36.47;;
36923;SDS011;22841;50.252;18.688;2022-12-24T00:07:14;69.03;;;35.30;;
36923;SDS011;22841;50.252;18.688;2022-12-24T00:09:40;69.65;;;33.58;;
36923;SDS011;22841;50.252;18.688;2022-12-24T00:12:06;73.00;;;34.10;;
36923;SDS011;22841;50.252;18.688;2022-12-24T00:14:33;69.95;;;30.48;;
36923;SDS011;22841;50.252;18.688;2022-12-24T00:16:59;64.53;;;29.05;;
36923;SDS011;22841;50.252;18.688;2022-12-24T00:19:25;61.95;;;27.08;;
36923;SDS011;22841;50.252;18.688;2022-12-24T00:21:51;54.63;;;25.35;;
36923;SDS011;22841;50.252;18.688;2022-12-24T00:24:17;53.25;;;23.88;;
36923;SDS011;22841;50.252;18.688;2022-12-24T00:26:43;51.85;;;24.60;;
36923;SDS011;22841;50.252;18.688;2022-12-24T00:29:10;48.47;;;21.98;;
36923;SDS011;22841;50.252;18.688;2022-12-24T00:31:36;49.97;;;21.42;;
36923;SDS011;22841;50.252;18.688;2022-12-24T00:34:02;46.78;;;21.92;;
36923;SDS011;22841;50.252;18.688;2022-12-24T00:36:28;38.95;;;19.95;;
36923;SDS011;22841;50.252;18.688;2022-12-24T00:38:55;41.47;;;20.63;;
36923;SDS011;22841;50.252;18.688;2022-12-24T00:41:21;43.15;;;20.27;;
36923;SDS011;22841;50.252;18.688;2022-12-24T00:43:52;45.92;;;22.20;;
36923;SDS011;22841;50.252;18.688;2022-12-24T00:46:19;45.80;;;21.75;;
36923;SDS011;22841;50.252;18.688;2022-12-24T00:48:46;39.88;;;21.80;;
36923;SDS011;22841;50.252;18.688;2022-12-24T00:51:13;42.78;;;20.92;;
36923;SDS011;22841;50.252;18.688;2022-12-24T00:53:39;44.33;;;21.05;;
36923;SDS011;22841;50.252;18.688;2022-12-24T00:56:06;45.33;;;21.10;;
36923;SDS011;22841;50.252;18.688;2022-12-24T00:58:33;41.15;;;20.77;;
36923;SDS011;22841;50.252;18.688;2022-12-24T01:00:59;46.03;;;19.55;;
36923;SDS011;22841;50.252;18.688;2022-12-24T01:03:25;39.45;;;19.30;;
36923;SDS011;22841;50.252;18.688;2022-12-24T01:06:11;37.58;;;15.43;;
36923;SDS011;22841;50.252;18.688;2022-12-24T01:08:50;41.00;;;16.83;;
36923;SDS011;22841;50.252;18.688;2022-12-24T01:11:16;30.27;;;14.65;;
36923;SDS011;22841;50.252;18.688;2022-12-24T01:13:42;35.15;;;16.08;;
36923;SDS011;22841;50.252;18.688;2022-12-24T01:16:16;32.33;;;14.95;;
36923;SDS011;22841;50.252;18.688;2022-12-24T01:18:44;28.02;;;14.80;;
36923;SDS011;22841;50.252;18.688;2022-12-24T01:21:11;27.17;;;12.50;;
36923;SDS011;22841;50.252;18.688;2022-12-24T01:23:37;28.73;;;12.63;;
36923;SDS011;22841;50.252;18.688;2022-12-24T01:26:03;26.10;;;12.68;;
36923;SDS011;22841;50.252;18.688;2022-12-24T01:28:30;26.17;;;12.25;;
36923;SDS011;22841;50.252;18.688;2022-12-24T01:30:56;26.08;;;11.25;;
36923;SDS011;22841;50.252;18.688;2022-12-24T01:33:22;19.90;;;11.15;;
36923;SDS011;22841;50.252;18.688;2022-12-24T01:35:48;31.10;;;13.32;;
36923;SDS011;22841;50.252;18.688;2022-12-24T01:38:15;30.02;;;12.82;;
36923;SDS011;22841;50.252;18.688;2022-12-24T01:40:41;25.05;;;12.55;;
36923;SDS011;22841;50.252;18.688;2022-12-24T01:43:28;23.13;;;11.07;;
36923;SDS011;22841;50.252;18.688;2022-12-24T01:45:57;21.98;;;11.57;;
36923;SDS011;22841;50.252;18.688;2022-12-24T01:48:45;20.55;;;10.55;;
36923;SDS011;22841;50.252;18.688;2022-12-24T01:51:27;20.25;;;10.82;;
36923;SDS011;22841;50.252;18.688;2022-12-24T01:54:10;20.95;;;11.40;;
36923;SDS011;22841;50.252;18.688;2022-12-24T01:56:50;22.95;;;12.95;;
36923;SDS011;22841;50.252;18.688;2022-12-24T01:59:20;22.85;;;13.05;;
36923;SDS011;22841;50.252;18.688;2022-12-24T02:01:47;24.58;;;11.50;;
36923;SDS011;22841;50.252;18.688;2022-12-24T02:06:53;28.58;;;13.45;;
36923;SDS011;22841;50.252;18.688;2022-12-24T02:09:19;29.50;;;13.70;;
36923;SDS011;22841;50.252;18.688;2022-12-24T02:11:45;28.35;;;12.80;;
36923;SDS011;22841;50.252;18.688;2022-12-24T02:14:11;25.73;;;13.90;;
36923;SDS011;22841;50.252;18.688;2022-12-24T02:24:59;24.88;;;14.65;;
36923;SDS011;22841;50.252;18.688;2022-12-24T02:27:29;39.05;;;16.38;;
36923;SDS011;22841;50.252;18.688;2022-12-24T02:30:10;27.17;;;14.90;;
36923;SDS011;22841;50.252;18.688;2022-12-24T02:32:45;28.98;;;16.08;;
36923;SDS011;22841;50.252;18.688;2022-12-24T02:40:46;86.38;;;28.13;;
36923;SDS011;22841;50.252;18.688;2022-12-24T02:43:32;69.20;;;24.38;;
36923;SDS011;22841;50.252;18.688;2022-12-24T02:46:06;60.10;;;24.45;;
36923;SDS011;22841;50.252;18.688;2022-12-24T02:48:37;95.85;;;26.63;;
36923;SDS011;22841;50.252;18.688;2022-12-24T02:51:07;48.55;;;22.67;;
36923;SDS011;22841;50.252;18.688;2022-12-24T02:53:34;42.88;;;20.92;;
36923;SDS011;22841;50.252;18.688;2022-12-24T03:09:27;32.90;;;18.25;;
36923;SDS011;22841;50.252;18.688;2022-12-24T03:12:29;29.88;;;17.30;;
36923;SDS011;22841;50.252;18.688;2022-12-24T03:15:00;34.65;;;18.70;;
36923;SDS011;22841;50.252;18.688;2022-12-24T03:17:29;33.88;;;17.20;;
36923;SDS011;22841;50.252;18.688;2022-12-24T03:19:59;36.30;;;16.85;;
36923;SDS011;22841;50.252;18.688;2022-12-24T03:22:25;36.65;;;17.70;;
36923;SDS011;22841;50.252;18.688;2022-12-24T03:24:52;29.60;;;17.55;;
36923;SDS011;22841;50.252;18.688;2022-12-24T03:27:18;32.35;;;17.20;;
36923;SDS011;22841;50.252;18.688;2022-12-24T03:29:44;33.40;;;18.48;;
36923;SDS011;22841;50.252;18.688;2022-12-24T03:32:11;31.50;;;16.90;;
36923;SDS011;22841;50.252;18.688;2022-12-24T03:34:37;28.58;;;16.60;;
36923;SDS011;22841;50.252;18.688;2022-12-24T03:37:03;28.15;;;15.95;;
36923;SDS011;22841;50.252;18.688;2022-12-24T03:39:29;27.88;;;16.13;;
36923;SDS011;22841;50.252;18.688;2022-12-24T03:41:55;28.50;;;16.80;;
36923;SDS011;22841;50.252;18.688;2022-12-24T03:44:22;27.85;;;16.20;;
36923;SDS011;22841;50.252;18.688;2022-12-24T03:46:48;27.00;;;14.75;;
36923;SDS011;22841;50.252;18.688;2022-12-24T03:49:14;29.52;;;15.52;;
36923;SDS011;22841;50.252;18.688;2022-12-24T03:51:40;27.58;;;15.90;;
36923;SDS011;22841;50.252;18.688;2022-12-24T03:54:06;26.15;;;14.88;;
36923;SDS011;22841;50.252;18.688;2022-12-24T03:56:32;25.40;;;15.35;;
36923;SDS011;22841;50.252;18.688;2022-12-24T03:58:58;29.17;;;15.88;;
36923;SDS011;22841;50.252;18.688;2022-12-24T04:01:24;25.90;;;14.70;;
36923;SDS011;22841;50.252;18.688;2022-12-24T04:03:50;25.98;;;14.85;;
36923;SDS011;22841;50.252;18.688;2022-12-24T04:06:16;25.25;;;13.27;;
36923;SDS011;22841;50.252;18.688;2022-12-24T04:08:43;24.05;;;14.45;;
36923;SDS011;22841;50.252;18.688;2022-12-24T04:11:10;21.20;;;14.02;;
36923;SDS011;22841;50.252;18.688;2022-12-24T04:13:38;19.45;;;12.77;;
36923;SDS011;22841;50.252;18.688;2022-12-24T04:16:05;23.88;;;13.77;;
36923;SDS011;22841;50.252;18.688;2022-12-24T04:18:33;29.75;;;14.85;;
36923;SDS011;22841;50.252;18.688;2022-12-24T04:21:00;22.48;;;14.13;;
36923;SDS011;22841;50.252;18.688;2022-12-24T04:23:28;26.63;;;14.38;;
36923;SDS011;22841;50.252;18.688;2022-12-24T04:25:57;23.00;;;14.18;;
36923;SDS011;22841;50.252;18.688;2022-12-24T04:28:24;21.40;;;12.85;;
36923;SDS011;22841;50.252;18.688;2022-12-24T04:30:50;25.67;;;13.25;;
36923;SDS011;22841;50.252;18.688;2022-12-24T04:33:16;22.58;;;13.05;;
36923;SDS011;22841;50.252;18.688;2022-12-24T04:35:42;22.08;;;13.10;;
36923;SDS011;22841;50.252;18.688;2022-12-24T04:38:09;21.08;;;12.23;;
36923;SDS011;22841;50.252;18.688;2022-12-24T04:40:35;22.15;;;12.38;;
36923;SDS011;22841;50.252;18.688;2022-12-24T04:43:01;21.08;;;12.18;;
36923;SDS011;22841;50.252;18.688;2022-12-24T04:45:27;20.30;;;12.13;;
36923;SDS011;22841;50.252;18.688;2022-12-24T04:47:53;20.92;;;11.18;;
36923;SDS011;22841;50.252;18.688;2022-12-24T04:50:19;21.52;;;12.80;;
36923;SDS011;22841;50.252;18.688;2022-12-24T04:52:45;23.50;;;13.25;;
36923;SDS011;22841;50.252;18.688;2022-12-24T04:55:12;20.38;;;11.48;;
36923;SDS011;22841;50.252;18.688;2022-12-24T04:57:38;16.60;;;10.38;;
36923;SDS011;22841;50.252;18.688;2022-12-24T05:00:04;20.50;;;12.00;;
36923;SDS011;22841;50.252;18.688;2022-12-24T05:02:31;17.95;;;11.93;;
36923;SDS011;22841;50.252;18.688;2022-12-24T05:04:57;17.13;;;11.52;;
36923;SDS011;22841;50.252;18.688;2022-12-24T05:07:23;19.80;;;12.02;;
36923;SDS011;22841;50.252;18.688;2022-12-24T05:09:49;17.73;;;11.43;;
36923;SDS011;22841;50.252;18.688;2022-12-24T05:12:15;17.88;;;11.27;;
36923;SDS011;22841;50.252;18.688;2022-12-24T05:14:41;16.15;;;11.20;;
36923;SDS011;22841;50.252;18.688;2022-12-24T05:17:08;19.15;;;11.02;;
36923;SDS011;22841;50.252;18.688;2022-12-24T05:19:34;17.80;;;11.02;;
36923;SDS011;22841;50.252;18.688;2022-12-24T05:22:00;18.85;;;10.85;;
36923;SDS011;22841;50.252;18.688;2022-12-24T05:24:44;17.00;;;11.80;;
36923;SDS011;22841;50.252;18.688;2022-12-24T05:27:29;19.10;;;12.38;;
36923;SDS011;22841;50.252;18.688;2022-12-24T05:29:55;18.27;;;11.77;;
36923;SDS011;22841;50.252;18.688;2022-12-24T05:32:21;16.13;;;11.13;;
36923;SDS011;22841;50.252;18.688;2022-12-24T05:34:47;16.80;;;11.13;;
36923;SDS011;22841;50.252;18.688;2022-12-24T05:37:13;17.23;;;11.20;;
36923;SDS011;22841;50.252;18.688;2022-12-24T05:39:39;16.15;;;10.10;;
36923;SDS011;22841;50.252;18.688;2022-12-24T05:42:06;17.60;;;11.70;;
36923;SDS011;22841;50.252;18.688;2022-12-24T05:44:32;17.10;;;11.73;;
36923;SDS011;22841;50.252;18.688;2022-12-24T05:46:58;16.42;;;11.40;;
36923;SDS011;22841;50.252;18.688;2022-12-24T05:49:24;18.40;;;10.55;;
36923;SDS011;22841;50.252;18.688;2022-12-24T05:51:50;15.85;;;10.70;;
36923;SDS011;22841;50.252;18.688;2022-12-24T05:54:16;18.05;;;11.50;;
36923;SDS011;22841;50.252;18.688;2022-12-24T05:56:42;18.55;;;11.25;;
36923;SDS011;22841;50.252;18.688;2022-12-24T05:59:08;18.92;;;12.80;;
36923;SDS011;22841;50.252;18.688;2022-12-24T06:01:34;18.88;;;12.25;;
36923;SDS011;22841;50.252;18.688;2022-12-24T06:04:00;19.63;;;12.27;;
36923;SDS011;22841;50.252;18.688;2022-12-24T06:06:27;19.90;;;12.80;;
36923;SDS011;22841;50.252;18.688;2022-12-24T06:08:53;21.95;;;12.20;;
36923;SDS011;22841;50.252;18.688;2022-12-24T06:11:21;19.17;;;12.00;;
36923;SDS011;22841;50.252;18.688;2022-12-24T06:13:48;26.23;;;13.43;;
36923;SDS011;22841;50.252;18.688;2022-12-24T06:16:16;21.35;;;13.05;;
36923;SDS011;22841;50.252;18.688;2022-12-24T06:18:43;21.13;;;13.35;;
36923;SDS011;22841;50.252;18.688;2022-12-24T06:21:09;22.85;;;13.30;;
36923;SDS011;22841;50.252;18.688;2022-12-24T06:23:37;22.90;;;13.43;;
36923;SDS011;22841;50.252;18.688;2022-12-24T06:26:05;23.30;;;14.35;;
36923;SDS011;22841;50.252;18.688;2022-12-24T06:28:33;20.00;;;13.57;;
36923;SDS011;22841;50.252;18.688;2022-12-24T06:31:01;24.10;;;15.18;;
36923;SDS011;22841;50.252;18.688;2022-12-24T06:33:30;18.33;;;14.05;;
36923;SDS011;22841;50.252;18.688;2022-12-24T06:35:57;18.90;;;13.00;;
36923;SDS011;22841;50.252;18.688;2022-12-24T06:38:24;22.58;;;14.50;;
36923;SDS011;22841;50.252;18.688;2022-12-24T06:40:50;19.10;;;13.48;;
36923;SDS011;22841;50.252;18.688;2022-12-24T06:43:16;18.45;;;12.00;;
36923;SDS011;22841;50.252;18.688;2022-12-24T06:45:46;18.02;;;11.38;;
36923;SDS011;22841;50.252;18.688;2022-12-24T06:48:13;17.52;;;10.93;;
36923;SDS011;22841;50.252;18.688;2022-12-24T06:50:39;15.65;;;10.93;;
36923;SDS011;22841;50.252;18.688;2022-12-24T06:53:06;16.33;;;11.38;;
36923;SDS011;22841;50.252;18.688;2022-12-24T06:55:33;18.30;;;10.85;;
36923;SDS011;22841;50.252;18.688;2022-12-24T06:57:59;16.17;;;10.85;;
36923;SDS011;22841;50.252;18.688;2022-12-24T07:00:25;18.15;;;10.98;;
36923;SDS011;22841;50.252;18.688;2022-12-24T07:02:51;19.65;;;10.95;;
36923;SDS011;22841;50.252;18.688;2022-12-24T07:05:17;16.73;;;9.68;;
36923;SDS011;22841;50.252;18.688;2022-12-24T07:07:44;22.17;;;11.00;;
36923;SDS011;22841;50.252;18.688;2022-12-24T07:10:11;19.65;;;10.70;;
36923;SDS011;22841;50.252;18.688;2022-12-24T07:12:38;17.73;;;10.40;;
36923;SDS011;22841;50.252;18.688;2022-12-24T07:15:05;17.73;;;10.77;;
36923;SDS011;22841;50.252;18.688;2022-12-24T07:17:31;17.17;;;11.85;;
36923;SDS011;22841;50.252;18.688;2022-12-24T07:19:57;15.15;;;11.05;;
36923;SDS011;22841;50.252;18.688;2022-12-24T07:22:23;21.00;;;11.43;;
36923;SDS011;22841;50.252;18.688;2022-12-24T07:24:50;19.77;;;12.27;;
36923;SDS011;22841;50.252;18.688;2022-12-24T07:27:16;23.67;;;12.57;;
36923;SDS011;22841;50.252;18.688;2022-12-24T07:29:42;19.60;;;12.50;;
36923;SDS011;22841;50.252;18.688;2022-12-24T07:32:08;22.17;;;12.35;;
36923;SDS011;22841;50.252;18.688;2022-12-24T07:34:35;22.85;;;12.55;;
36923;SDS011;22841;50.252;18.688;2022-12-24T07:37:01;23.27;;;12.57;;
36923;SDS011;22841;50.252;18.688;2022-12-24T07:39:28;20.63;;;13.23;;
36923;SDS011;22841;50.252;18.688;2022-12-24T07:41:54;24.30;;;13.38;;
36923;SDS011;22841;50.252;18.688;2022-12-24T07:44:20;28.85;;;13.02;;
36923;SDS011;22841;50.252;18.688;2022-12-24T07:46:46;24.90;;;13.43;;
36923;SDS011;22841;50.252;18.688;2022-12-24T07:49:12;27.48;;;14.48;;
36923;SDS011;22841;50.252;18.688;2022-12-24T07:51:39;22.10;;;13.05;;
36923;SDS011;22841;50.252;18.688;2022-12-24T07:54:05;24.10;;;13.82;;
36923;SDS011;22841;50.252;18.688;2022-12-24T07:56:32;27.35;;;14.85;;
36923;SDS011;22841;50.252;18.688;2022-12-24T07:58:58;24.92;;;14.43;;
36923;SDS011;22841;50.252;18.688;2022-12-24T08:01:24;23.80;;;13.13;;
36923;SDS011;22841;50.252;18.688;2022-12-24T08:03:51;24.77;;;13.95;;
36923;SDS011;22841;50.252;18.688;2022-12-24T08:06:22;23.60;;;13.40;;
36923;SDS011;22841;50.252;18.688;2022-12-24T08:08:48;25.05;;;13.63;;
36923;SDS011;22841;50.252;18.688;2022-12-24T08:11:14;27.48;;;14.68;;
36923;SDS011;22841;50.252;18.688;2022-12-24T08:13:40;24.83;;;14.40;;
36923;SDS011;22841;50.252;18.688;2022-12-24T08:16:07;25.15;;;14.00;;
36923;SDS011;22841;50.252;18.688;2022-12-24T08:18:33;25.20;;;12.95;;
36923;SDS011;22841;50.252;18.688;2022-12-24T08:20:59;26.02;;;13.02;;
36923;SDS011;22841;50.252;18.688;2022-12-24T08:23:25;26.17;;;13.88;;
36923;SDS011;22841;50.252;18.688;2022-12-24T08:25:51;25.60;;;13.98;;
36923;SDS011;22841;50.252;18.688;2022-12-24T08:28:18;32.47;;;15.02;;
36923;SDS011;22841;50.252;18.688;2022-12-24T08:30:47;27.50;;;14.35;;
36923;SDS011;22841;50.252;18.688;2022-12-24T08:33:14;27.67;;;14.82;;
36923;SDS011;22841;50.252;18.688;2022-12-24T08:35:45;23.95;;;12.52;;
36923;SDS011;22841;50.252;18.688;2022-12-24T08:38:15;25.35;;;13.32;;
36923;SDS011;22841;50.252;18.688;2022-12-24T08:40:41;26.58;;;13.15;;
36923;SDS011;22841;50.252;18.688;2022-12-24T08:43:08;26.05;;;13.50;;
36923;SDS011;22841;50.252;18.688;2022-12-24T08:45:34;22.63;;;11.52;;
36923;SDS011;22841;50.252;18.688;2022-12-24T08:48:02;22.25;;;11.50;;
36923;SDS011;22841;50.252;18.688;2022-12-24T08:50:29;23.08;;;11.52;;
36923;SDS011;22841;50.252;18.688;2022-12-24T08:52:55;22.15;;;10.15;;
36923;SDS011;22841;50.252;18.688;2022-12-24T08:55:21;21.70;;;9.68;;
36923;SDS011;22841;50.252;18.688;2022-12-24T08:57:47;21.30;;;11.07;;
36923;SDS011;22841;50.252;18.688;2022-12-24T09:00:13;16.40;;;9.55;;
36923;SDS011;22841;50.252;18.688;2022-12-24T09:02:40;20.55;;;9.80;;
36923;SDS011;22841;50.252;18.688;2022-12-24T09:05:06;18.17;;;9.35;;
36923;SDS011;22841;50.252;18.688;2022-12-24T09:07:32;23.70;;;10.63;;
36923;SDS011;22841;50.252;18.688;2022-12-24T09:09:59;16.38;;;9.27;;
36923;SDS011;22841;50.252;18.688;2022-12-24T09:12:25;14.95;;;8.95;;
36923;SDS011;22841;50.252;18.688;2022-12-24T09:14:51;20.73;;;10.63;;
36923;SDS011;22841;50.252;18.688;2022-12-24T09:17:19;17.33;;;9.13;;
36923;SDS011;22841;50.252;18.688;2022-12-24T09:19:45;20.58;;;10.45;;
36923;SDS011;22841;50.252;18.688;2022-12-24T09:22:12;19.25;;;9.55;;
36923;SDS011;22841;50.252;18.688;2022-12-24T09:24:38;22.60;;;10.00;;
36923;SDS011;22841;50.252;18.688;2022-12-24T09:27:05;20.70;;;9.68;;
36923;SDS011;22841;50.252;18.688;2022-12-24T09:29:31;16.90;;;8.88;;
36923;SDS011;22841;50.252;18.688;2022-12-24T09:31:57;14.40;;;7.68;;
36923;SDS011;22841;50.252;18.688;2022-12-24T09:34:24;11.80;;;6.70;;
36923;SDS011;22841;50.252;18.688;2022-12-24T09:36:50;15.73;;;6.47;;
36923;SDS011;22841;50.252;18.688;2022-12-24T09:39:18;12.95;;;6.38;;
36923;SDS011;22841;50.252;18.688;2022-12-24T09:44:46;15.80;;;7.75;;
36923;SDS011;22841;50.252;18.688;2022-12-24T09:49:58;16.95;;;8.15;;
36923;SDS011;22841;50.252;18.688;2022-12-24T09:57:57;22.95;;;8.75;;
36923;SDS011;22841;50.252;18.688;2022-12-24T10:00:28;24.23;;;8.57;;
36923;SDS011;22841;50.252;18.688;2022-12-24T10:02:55;29.20;;;10.13;;
36923;SDS011;22841;50.252;18.688;2022-12-24T10:05:28;33.38;;;10.75;;
36923;SDS011;22841;50.252;18.688;2022-12-24T10:08:07;25.92;;;9.77;;
36923;SDS011;22841;50.252;18.688;2022-12-24T10:10:51;21.33;;;9.75;;
36923;SDS011;22841;50.252;18.688;2022-12-24T10:13:28;20.38;;;8.02;;
36923;SDS011;22841;50.252;18.688;2022-12-24T10:16:22;17.20;;;7.03;;
36923;SDS011;22841;50.252;18.688;2022-12-24T10:19:04;16.35;;;7.82;;
36923;SDS011;22841;50.252;18.688;2022-12-24T10:29:40;23.15;;;9.85;;
36923;SDS011;22841;50.252;18.688;2022-12-24T10:37:29;20.10;;;8.48;;
36923;SDS011;22841;50.252;18.688;2022-12-24T10:39:56;20.58;;;9.18;;
36923;SDS011;22841;50.252;18.688;2022-12-24T10:42:24;18.50;;;8.38;;
36923;SDS011;22841;50.252;18.688;2022-12-24T10:44:59;19.98;;;7.80;;
36923;SDS011;22841;50.252;18.688;2022-12-24T10:47:28;24.57;;;9.73;;
36923;SDS011;22841;50.252;18.688;2022-12-24T10:50:08;13.27;;;7.78;;
36923;SDS011;22841;50.252;18.688;2022-12-24T10:52:36;19.33;;;8.43;;
36923;SDS011;22841;50.252;18.688;2022-12-24T10:57:44;15.63;;;9.18;;
36923;SDS011;22841;50.252;18.688;2022-12-24T11:00:21;18.20;;;8.60;;
36923;SDS011;22841;50.252;18.688;2022-12-24T11:02:49;19.48;;;9.07;;
36923;SDS011;22841;50.252;18.688;2022-12-24T11:06:00;18.40;;;8.52;;
36923;SDS011;22841;50.252;18.688;2022-12-24T11:08:33;21.20;;;9.00;;
36923;SDS011;22841;50.252;18.688;2022-12-24T11:11:04;19.30;;;9.85;;
36923;SDS011;22841;50.252;18.688;2022-12-24T11:13:37;17.92;;;8.38;;
36923;SDS011;22841;50.252;18.688;2022-12-24T11:18:53;19.13;;;9.43;;
36923;SDS011;22841;50.252;18.688;2022-12-24T11:21:22;22.08;;;10.27;;
36923;SDS011;22841;50.252;18.688;2022-12-24T11:23:52;14.48;;;8.52;;
36923;SDS011;22841;50.252;18.688;2022-12-24T11:26:25;24.15;;;10.63;;
36923;SDS011;22841;50.252;18.688;2022-12-24T11:31:29;13.98;;;8.90;;
36923;SDS011;22841;50.252;18.688;2022-12-24T11:33:57;18.73;;;9.93;;
36923;SDS011;22841;50.252;18.688;2022-12-24T11:36:23;23.23;;;10.57;;
36923;SDS011;22841;50.252;18.688;2022-12-24T11:38:55;16.10;;;9.38;;
36923;SDS011;22841;50.252;18.688;2022-12-24T11:41:23;16.05;;;8.68;;
36923;SDS011;22841;50.252;18.688;2022-12-24T11:43:51;13.80;;;7.75;;
36923;SDS011;22841;50.252;18.688;2022-12-24T11:46:38;14.35;;;6.75;;
36923;SDS011;22841;50.252;18.688;2022-12-24T11:49:16;13.73;;;6.03;;
36923;SDS011;22841;50.252;18.688;2022-12-24T11:55:26;9.20;;;4.95;;
36923;SDS011;22841;50.252;18.688;2022-12-24T12:00:10;10.15;;;4.03;;
36923;SDS011;22841;50.252;18.688;2022-12-24T12:02:40;8.30;;;3.95;;
36923;SDS011;22841;50.252;18.688;2022-12-24T12:05:20;10.30;;;4.88;;
36923;SDS011;22841;50.252;18.688;2022-12-24T12:07:54;10.25;;;4.93;;
36923;SDS011;22841;50.252;18.688;2022-12-24T12:10:28;10.18;;;4.78;;
36923;SDS011;22841;50.252;18.688;2022-12-24T12:13:02;13.93;;;5.40;;
36923;SDS011;22841;50.252;18.688;2022-12-24T12:15:42;10.43;;;4.78;;
36923;SDS011;22841;50.252;18.688;2022-12-24T12:18:15;14.00;;;5.60;;
36923;SDS011;22841;50.252;18.688;2022-12-24T12:20:51;10.75;;;4.13;;
36923;SDS011;22841;50.252;18.688;2022-12-24T12:23:27;11.00;;;5.03;;
36923;SDS011;22841;50.252;18.688;2022-12-24T12:25:57;10.07;;;4.13;;
36923;SDS011;22841;50.252;18.688;2022-12-24T12:31:34;16.38;;;5.45;;
36923;SDS011;22841;50.252;18.688;2022-12-24T12:34:29;17.02;;;7.30;;
36923;SDS011;22841;50.252;18.688;2022-12-24T12:37:13;24.33;;;10.43;;
36923;SDS011;22841;50.252;18.688;2022-12-24T12:39:48;20.77;;;9.38;;
36923;SDS011;22841;50.252;18.688;2022-12-24T12:42:34;18.70;;;7.35;;
36923;SDS011;22841;50.252;18.688;2022-12-24T12:48:11;18.30;;;7.15;;
36923;SDS011;22841;50.252;18.688;2022-12-24T12:50:57;14.23;;;6.70;;
36923;SDS011;22841;50.252;18.688;2022-12-24T12:53:35;24.83;;;10.52;;
36923;SDS011;22841;50.252;18.688;2022-12-24T12:58:56;18.08;;;8.65;;
36923;SDS011;22841;50.252;18.688;2022-12-24T13:01:35;17.60;;;8.07;;
36923;SDS011;22841;50.252;18.688;2022-12-24T13:10:24;15.55;;;8.55;;
36923;SDS011;22841;50.252;18.688;2022-12-24T13:15:42;14.38;;;6.95;;
36923;SDS011;22841;50.252;18.688;2022-12-24T13:21:01;8.95;;;4.50;;
36923;SDS011;22841;50.252;18.688;2022-12-24T13:23:28;10.88;;;4.43;;
36923;SDS011;22841;50.252;18.688;2022-12-24T13:25:55;10.75;;;4.32;;
36923;SDS011;22841;50.252;18.688;2022-12-24T13:30:52;14.38;;;6.78;;
36923;SDS011;22841;50.252;18.688;2022-12-24T13:36:07;15.85;;;6.45;;
36923;SDS011;22841;50.252;18.688;2022-12-24T13:39:10;12.02;;;5.50;;
36923;SDS011;22841;50.252;18.688;2022-12-24T13:44:21;9.68;;;4.43;;
36923;SDS011;22841;50.252;18.688;2022-12-24T13:47:01;14.02;;;4.90;;
36923;SDS011;22841;50.252;18.688;2022-12-24T13:49:43;13.23;;;6.25;;
36923;SDS011;22841;50.252;18.688;2022-12-24T13:52:17;20.95;;;8.60;;
36923;SDS011;22841;50.252;18.688;2022-12-24T14:02:55;20.23;;;7.07;;
36923;SDS011;22841;50.252;18.688;2022-12-24T14:16:06;18.48;;;6.15;;
36923;SDS011;22841;50.252;18.688;2022-12-24T14:18:40;18.00;;;7.35;;
36923;SDS011;22841;50.252;18.688;2022-12-24T14:21:14;19.23;;;5.90;;
36923;SDS011;22841;50.252;18.688;2022-12-24T14:23:48;17.55;;;5.63;;
36923;SDS011;22841;50.252;18.688;2022-12-24T14:26:29;13.02;;;5.47;;
36923;SDS011;22841;50.252;18.688;2022-12-24T14:28:59;21.48;;;6.65;;
36923;SDS011;22841;50.252;18.688;2022-12-24T14:31:25;14.57;;;5.88;;
36923;SDS011;22841;50.252;18.688;2022-12-24T14:34:01;10.95;;;5.68;;
36923;SDS011;22841;50.252;18.688;2022-12-24T14:36:31;17.35;;;6.28;;
36923;SDS011;22841;50.252;18.688;2022-12-24T14:38:57;13.98;;;5.93;;
36923;SDS011;22841;50.252;18.688;2022-12-24T14:41:36;19.17;;;6.80;;
36923;SDS011;22841;50.252;18.688;2022-12-24T14:47:00;15.57;;;6.22;;
36923;SDS011;22841;50.252;18.688;2022-12-24T14:49:51;18.38;;;6.20;;
36923;SDS011;22841;50.252;18.688;2022-12-24T14:52:37;17.98;;;8.48;;
36923;SDS011;22841;50.252;18.688;2022-12-24T14:55:40;28.65;;;12.45;;
36923;SDS011;22841;50.252;18.688;2022-12-24T15:00:56;19.13;;;8.65;;
36923;SDS011;22841;50.252;18.688;2022-12-24T15:03:25;30.42;;;10.07;;
36923;SDS011;22841;50.252;18.688;2022-12-24T15:05:54;30.17;;;10.18;;
36923;SDS011;22841;50.252;18.688;2022-12-24T15:08:27;32.40;;;12.55;;
36923;SDS011;22841;50.252;18.688;2022-12-24T15:11:02;35.90;;;14.65;;
36923;SDS011;22841;50.252;18.688;2022-12-24T15:13:38;43.50;;;17.13;;
36923;SDS011;22841;50.252;18.688;2022-12-24T15:16:13;36.60;;;16.45;;
36923;SDS011;22841;50.252;18.688;2022-12-24T15:18:45;43.35;;;15.70;;
36923;SDS011;22841;50.252;18.688;2022-12-24T15:21:19;40.22;;;16.70;;
36923;SDS011;22841;50.252;18.688;2022-12-24T15:23:50;46.97;;;18.27;;
36923;SDS011;22841;50.252;18.688;2022-12-24T15:28:57;85.57;;;28.88;;
36923;SDS011;22841;50.252;18.688;2022-12-24T15:31:25;95.40;;;30.92;;
36923;SDS011;22841;50.252;18.688;2022-12-24T15:33:53;95.82;;;33.95;;
36923;SDS011;22841;50.252;18.688;2022-12-24T15:36:25;76.82;;;29.02;;
36923;SDS011;22841;50.252;18.688;2022-12-24T15:38:54;51.15;;;20.38;;
36923;SDS011;22841;50.252;18.688;2022-12-24T15:41:27;47.47;;;18.60;;
36923;SDS011;22841;50.252;18.688;2022-12-24T15:44:25;51.42;;;19.55;;
36923;SDS011;22841;50.252;18.688;2022-12-24T15:46:58;43.92;;;16.58;;
36923;SDS011;22841;50.252;18.688;2022-12-24T15:49:25;41.85;;;15.45;;
36923;SDS011;22841;50.252;18.688;2022-12-24T15:52:00;33.08;;;15.75;;
36923;SDS011;22841;50.252;18.688;2022-12-24T15:54:31;44.83;;;17.48;;
36923;SDS011;22841;50.252;18.688;2022-12-24T15:56:58;50.00;;;18.17;;
36923;SDS011;22841;50.252;18.688;2022-12-24T16:01:53;84.45;;;29.13;;
36923;SDS011;22841;50.252;18.688;2022-12-24T16:04:26;79.93;;;28.05;;
36923;SDS011;22841;50.252;18.688;2022-12-24T16:06:53;68.70;;;25.15;;
36923;SDS011;22841;50.252;18.688;2022-12-24T16:09:43;60.47;;;23.70;;
36923;SDS011;22841;50.252;18.688;2022-12-24T16:12:20;64.32;;;23.33;;
36923;SDS011;22841;50.252;18.688;2022-12-24T16:14:55;44.75;;;17.30;;
36923;SDS011;22841;50.252;18.688;2022-12-24T16:17:24;41.20;;;16.50;;
36923;SDS011;22841;50.252;18.688;2022-12-24T16:19:53;34.85;;;13.98;;
36923;SDS011;22841;50.252;18.688;2022-12-24T16:22:23;31.00;;;14.05;;
36923;SDS011;22841;50.252;18.688;2022-12-24T16:24:56;27.95;;;10.63;;
36923;SDS011;22841;50.252;18.688;2022-12-24T16:27:23;24.98;;;10.07;;
36923;SDS011;22841;50.252;18.688;2022-12-24T16:29:49;22.60;;;9.00;;
36923;SDS011;22841;50.252;18.688;2022-12-24T16:32:27;31.00;;;11.88;;
36923;SDS011;22841;50.252;18.688;2022-12-24T16:34:59;30.30;;;12.07;;
36923;SDS011;22841;50.252;18.688;2022-12-24T16:37:27;31.75;;;12.10;;